Time;durP1;ratioP1;P1;durP2;ratioP2;P2;SDS_P1;SDS_P2;PMS_P1;PMS_P2;Temp;Humidity;BMP_temperature;BMP_pressure;BME280_temperature;BME280_humidity;BME280_pressure;Samples;Min_cycle;Max_cycle;Signal;HPM_P1;HPM_P2
2022/03/06 00:00:23;;;;;;;41.58;23.25;;;;;;;-145.45;100.00;62759.84;5282965;28;20461;-81
2022/03/06 00:02:54;;;;;;;49.55;26.27;;;;;;;-145.45;100.00;62759.84;5281282;28;20115;-81
2022/03/06 00:05:25;;;;;;;46.63;23.73;;;;;;;-145.45;100.00;62759.84;5280958;28;20033;-81
2022/03/06 00:07:59;;;;;;;46.20;24.55;;;;;;;-145.45;100.00;62759.84;5280681;28;20029;-81
2022/03/06 00:10:30;;;;;;;43.90;23.88;;;;;;;-145.45;100.00;62759.84;5280534;28;20036;-81
2022/03/06 00:13:02;;;;;;;49.28;23.83;;;;;;;-145.45;100.00;62759.84;5282021;28;20485;-81
2022/03/06 00:15:34;;;;;;;45.00;24.85;;;;;;;-145.45;100.00;62759.84;5281889;28;20032;-81
2022/03/06 00:18:05;;;;;;;43.72;22.60;;;;;;;-145.45;100.00;62759.84;5281229;28;20025;-81
2022/03/06 00:20:36;;;;;;;50.00;25.08;;;;;;;-145.45;100.00;62759.84;5282528;28;20423;-81
2022/03/06 00:23:08;;;;;;;49.90;25.15;;;;;;;-145.45;100.00;62759.84;5282386;28;20032;-81
2022/03/06 00:25:40;;;;;;;42.05;22.50;;;;;;;-145.45;100.00;62759.84;5281025;28;20163;-81
2022/03/06 00:28:11;;;;;;;45.03;25.85;;;;;;;-145.45;100.00;62759.84;5281829;28;20088;-81
2022/03/06 00:30:43;;;;;;;51.03;25.02;;;;;;;-145.45;100.00;62759.84;5263651;28;20110;-81
2022/03/06 00:33:14;;;;;;;41.00;23.23;;;;;;;-145.45;100.00;62759.84;5282272;28;20029;-81
2022/03/06 00:35:45;;;;;;;39.63;21.17;;;;;;;-145.45;100.00;62759.84;5281518;28;20025;-81
2022/03/06 00:38:17;;;;;;;47.00;26.58;;;;;;;-145.45;100.00;62759.84;5282362;28;20401;-81
2022/03/06 00:40:48;;;;;;;44.22;24.60;;;;;;;-145.45;100.00;62759.84;5281192;28;20052;-81
2022/03/06 00:43:19;;;;;;;38.13;19.55;;;;;;;-145.45;100.00;62759.84;5282310;28;20043;-81
2022/03/06 00:45:50;;;;;;;48.22;26.38;;;;;;;-145.45;100.00;62759.84;5281610;28;20056;-81
2022/03/06 00:48:22;;;;;;;36.03;19.90;;;;;;;-145.45;100.00;62759.84;5263408;28;20636;-81
2022/03/06 00:50:53;;;;;;;48.55;25.30;;;;;;;-145.45;100.00;62759.84;5281740;28;20033;-81
2022/03/06 00:53:25;;;;;;;38.85;20.92;;;;;;;-145.45;100.00;62759.84;5281409;28;20033;-81
2022/03/06 00:55:56;;;;;;;43.97;24.02;;;;;;;-145.45;100.00;62759.84;5261865;28;20021;-81
2022/03/06 00:58:27;;;;;;;44.38;23.40;;;;;;;-145.45;100.00;62759.84;5282136;28;20028;-81
2022/03/06 01:00:59;;;;;;;36.90;19.98;;;;;;;-145.45;100.00;62759.84;5281725;28;20374;-81
2022/03/06 01:03:31;;;;;;;40.20;22.13;;;;;;;-145.45;100.00;62759.84;5280178;28;20164;-81
2022/03/06 01:06:02;;;;;;;42.72;22.20;;;;;;;-145.45;100.00;62759.84;5281530;28;20029;-81
2022/03/06 01:08:33;;;;;;;38.38;21.45;;;;;;;-145.45;100.00;62759.84;5263230;28;20434;-81
2022/03/06 01:11:05;;;;;;;37.40;20.08;;;;;;;-145.45;100.00;62759.84;5281025;28;20120;-81
2022/03/06 01:13:36;;;;;;;39.85;21.48;;;;;;;-145.45;100.00;62759.84;5281756;28;20017;-81
2022/03/06 01:16:07;;;;;;;44.53;24.58;;;;;;;-145.45;100.00;62759.84;5280823;28;20043;-81
2022/03/06 01:18:39;;;;;;;38.88;21.35;;;;;;;-145.45;100.00;62759.84;5282197;28;20032;-81
2022/03/06 01:21:10;;;;;;;42.22;22.75;;;;;;;-145.45;100.00;62759.84;5282285;28;20030;-81
2022/03/06 01:23:41;;;;;;;45.47;23.50;;;;;;;-145.45;100.00;62759.84;5282476;28;20458;-81
2022/03/06 01:26:12;;;;;;;46.17;25.05;;;;;;;-145.45;100.00;62759.84;5278276;28;33728;-81
2022/03/06 01:28:45;;;;;;;47.47;25.67;;;;;;;-145.45;100.00;62759.84;5281204;28;20021;-81
2022/03/06 01:31:16;;;;;;;46.10;24.77;;;;;;;-145.45;100.00;62759.84;5281778;28;20458;-81
2022/03/06 01:33:47;;;;;;;40.92;22.25;;;;;;;-145.45;100.00;62759.84;5281350;28;20025;-81
2022/03/06 01:36:18;;;;;;;42.60;22.80;;;;;;;-145.45;100.00;62759.84;5280281;28;20493;-81
2022/03/06 01:38:50;;;;;;;43.88;23.42;;;;;;;-145.45;100.00;62759.84;5281451;28;20021;-81
2022/03/06 01:41:21;;;;;;;46.33;23.30;;;;;;;-145.45;100.00;62759.84;5284866;28;20021;-81
2022/03/06 01:43:52;;;;;;;48.95;23.83;;;;;;;-145.45;100.00;62759.84;5281551;28;20040;-81
2022/03/06 01:46:24;;;;;;;43.88;23.42;;;;;;;-145.45;100.00;62759.84;5262760;28;20151;-81
2022/03/06 01:48:55;;;;;;;43.75;22.90;;;;;;;-145.45;100.00;62759.84;5263182;28;20041;-81
2022/03/06 01:51:26;;;;;;;46.65;24.33;;;;;;;-145.45;100.00;62759.84;5258288;28;20184;-81
2022/03/06 01:53:59;;;;;;;45.08;24.05;;;;;;;-145.45;100.00;62759.84;5258731;28;20038;-81
2022/03/06 01:56:30;;;;;;;51.00;24.95;;;;;;;-145.45;100.00;62759.84;5259163;28;20120;-81
2022/03/06 01:59:03;;;;;;;40.60;22.52;;;;;;;-145.45;100.00;62759.84;5258745;28;20032;-81
2022/03/06 02:01:34;;;;;;;43.00;23.00;;;;;;;-145.45;100.00;62759.84;5258033;28;20105;-81
2022/03/06 02:04:06;;;;;;;40.25;21.75;;;;;;;-145.45;100.00;62759.84;5260153;28;20151;-81
2022/03/06 02:06:38;;;;;;;38.95;22.95;;;;;;;-145.45;100.00;62759.84;5259616;28;20017;-81
2022/03/06 02:09:09;;;;;;;39.78;21.70;;;;;;;-145.45;100.00;62759.84;5259037;28;20060;-81
2022/03/06 02:11:41;;;;;;;50.67;25.45;;;;;;;-145.45;100.00;62759.84;5257462;28;20427;-81
2022/03/06 02:14:12;;;;;;;44.17;23.05;;;;;;;-145.45;100.00;62759.84;5256800;28;20028;-81
2022/03/06 02:16:43;;;;;;;47.13;25.00;;;;;;;-145.45;100.00;62759.84;5259105;28;20060;-81
2022/03/06 02:19:14;;;;;;;43.00;23.52;;;;;;;-145.45;100.00;62759.84;5259472;28;20041;-81
2022/03/06 02:21:49;;;;;;;43.05;23.45;;;;;;;-145.45;100.00;62759.84;5259717;28;20064;-81
2022/03/06 02:24:20;;;;;;;41.88;22.20;;;;;;;-145.45;100.00;62759.84;5258979;28;20363;-81
2022/03/06 02:26:51;;;;;;;45.28;24.13;;;;;;;-145.45;100.00;62759.84;5256694;28;20041;-81
2022/03/06 02:29:22;;;;;;;39.70;20.85;;;;;;;-145.45;100.00;62759.84;5259678;28;20022;-81
2022/03/06 02:31:54;;;;;;;45.95;24.30;;;;;;;-145.45;100.00;62759.84;5259688;28;20033;-81
2022/03/06 02:34:27;;;;;;;44.25;24.67;;;;;;;-145.45;100.00;62759.84;5259652;28;20108;-81
2022/03/06 02:37:00;;;;;;;46.10;25.63;;;;;;;-145.45;100.00;62759.84;5261413;28;20030;-81
2022/03/06 02:39:31;;;;;;;47.47;24.58;;;;;;;-145.45;100.00;62759.84;5262865;28;20032;-81
2022/03/06 02:42:03;;;;;;;43.10;22.98;;;;;;;-145.45;100.00;62759.84;5258836;28;20034;-80
2022/03/06 02:44:35;;;;;;;43.85;24.55;;;;;;;-145.45;100.00;62759.84;5261717;28;20051;-81
2022/03/06 02:47:06;;;;;;;44.22;24.15;;;;;;;-145.45;100.00;62759.84;5262319;28;20026;-81
2022/03/06 02:49:37;;;;;;;43.22;23.35;;;;;;;-145.45;100.00;62759.84;5260979;28;20038;-81
2022/03/06 02:52:09;;;;;;;42.80;23.55;;;;;;;-145.45;100.00;62759.84;5262776;28;20367;-81
2022/03/06 02:54:41;;;;;;;40.55;21.33;;;;;;;-145.45;100.00;62759.84;5259729;28;20033;-81
2022/03/06 02:57:13;;;;;;;39.42;20.25;;;;;;;-145.45;100.00;62759.84;5261883;28;20029;-81
2022/03/06 02:59:44;;;;;;;49.22;23.20;;;;;;;-145.45;100.00;62759.84;5261129;28;20029;-81
2022/03/06 03:02:16;;;;;;;47.75;24.30;;;;;;;-145.45;100.00;62759.84;5261039;28;20022;-81
2022/03/06 03:04:47;;;;;;;43.60;21.70;;;;;;;-145.45;100.00;62759.84;5259262;28;20037;-81
2022/03/06 03:07:19;;;;;;;44.03;22.60;;;;;;;-145.45;100.00;62759.84;5261436;28;20018;-81
2022/03/06 03:09:50;;;;;;;39.80;21.38;;;;;;;-145.45;100.00;62759.84;5262813;28;20026;-81
2022/03/06 03:12:22;;;;;;;43.20;23.13;;;;;;;-145.45;100.00;62759.84;5259639;28;20040;-81
2022/03/06 03:14:53;;;;;;;37.90;20.23;;;;;;;-145.45;100.00;62759.84;5259313;28;20017;-81
2022/03/06 03:17:24;;;;;;;40.85;22.33;;;;;;;-145.45;100.00;62759.84;5261543;28;21604;-81
2022/03/06 03:19:56;;;;;;;45.78;23.20;;;;;;;-145.45;100.00;62759.84;5260459;28;20056;-81
2022/03/06 03:22:27;;;;;;;42.10;22.27;;;;;;;-145.45;100.00;62759.84;5261980;28;20499;-81
2022/03/06 03:24:58;;;;;;;42.25;22.38;;;;;;;-145.45;100.00;62759.84;5259166;28;20088;-81
2022/03/06 03:27:30;;;;;;;37.78;22.30;;;;;;;-145.45;100.00;62759.84;5259585;28;20474;-81
2022/03/06 03:30:03;;;;;;;43.45;22.35;;;;;;;-145.45;100.00;62759.84;5261430;28;20113;-81
2022/03/06 03:32:34;;;;;;;43.03;22.67;;;;;;;-145.45;100.00;62759.84;5261796;28;20101;-81
2022/03/06 03:35:07;;;;;;;41.92;23.20;;;;;;;-145.45;100.00;62759.84;5260465;28;20112;-81
2022/03/06 03:37:38;;;;;;;46.47;23.55;;;;;;;-145.45;100.00;62759.84;5262390;28;20057;-81
2022/03/06 03:40:10;;;;;;;48.28;24.95;;;;;;;-145.45;100.00;62759.84;5261586;28;20477;-81
2022/03/06 03:42:42;;;;;;;41.28;22.55;;;;;;;-145.45;100.00;62759.84;5259957;28;20029;-81
2022/03/06 03:45:13;;;;;;;44.67;22.55;;;;;;;-145.45;100.00;62759.84;5260997;28;20037;-81
2022/03/06 03:47:44;;;;;;;44.42;23.70;;;;;;;-145.45;100.00;62759.84;5259782;28;20474;-81
2022/03/06 03:50:15;;;;;;;40.92;23.10;;;;;;;-145.45;100.00;62759.84;5274455;28;20440;-81
2022/03/06 03:52:47;;;;;;;45.85;23.45;;;;;;;-145.45;100.00;62759.84;5282892;28;20028;-81
2022/03/06 03:55:18;;;;;;;47.08;24.95;;;;;;;-145.45;100.00;62759.84;5285130;28;20021;-80
2022/03/06 03:57:50;;;;;;;43.80;21.95;;;;;;;-145.45;100.00;62759.84;5287640;28;20093;-80
2022/03/06 04:00:21;;;;;;;45.03;23.40;;;;;;;-145.45;100.00;62759.84;5283887;28;20095;-80
2022/03/06 04:02:52;;;;;;;38.85;20.77;;;;;;;-145.45;100.00;62759.84;5281325;28;20078;-81
2022/03/06 04:05:24;;;;;;;48.22;23.65;;;;;;;-145.45;100.00;62759.84;5283420;28;20025;-80
2022/03/06 04:07:56;;;;;;;41.60;23.73;;;;;;;-145.45;100.00;62759.84;5279431;28;20044;-80
2022/03/06 04:10:27;;;;;;;42.38;23.55;;;;;;;-145.45;100.00;62759.84;5282040;28;20072;-80
2022/03/06 04:12:58;;;;;;;44.08;25.05;;;;;;;-145.45;100.00;62759.84;5282699;28;20042;-80
2022/03/06 04:15:30;;;;;;;42.03;22.80;;;;;;;-145.45;100.00;62759.84;5265400;28;20069;-80
2022/03/06 04:18:02;;;;;;;47.83;25.25;;;;;;;-145.45;100.00;62759.84;5284257;28;20032;-80
2022/03/06 04:20:33;;;;;;;50.58;25.27;;;;;;;-145.45;100.00;62759.84;5303908;28;20049;-80
2022/03/06 04:23:04;;;;;;;46.20;24.63;;;;;;;-145.45;100.00;62759.84;5305056;28;20025;-79
2022/03/06 04:25:36;;;;;;;37.70;20.38;;;;;;;-145.45;100.00;62759.84;5299974;28;20014;-80
2022/03/06 04:28:08;;;;;;;46.67;26.13;;;;;;;-145.45;100.00;62759.84;5306635;28;20021;-79
2022/03/06 04:30:39;;;;;;;44.53;24.10;;;;;;;-145.45;100.00;62759.84;5305272;28;20029;-80
2022/03/06 04:33:11;;;;;;;45.50;23.55;;;;;;;-145.45;100.00;62759.84;5284760;28;20040;-80
2022/03/06 04:35:42;;;;;;;39.78;22.08;;;;;;;-145.45;100.00;62759.84;5283172;28;20029;-81
2022/03/06 04:38:13;;;;;;;45.65;25.25;;;;;;;-145.45;100.00;62759.84;5265053;28;20017;-80
2022/03/06 04:40:46;;;;;;;40.03;22.92;;;;;;;-145.45;100.00;62759.84;5282162;28;20045;-80
2022/03/06 04:43:18;;;;;;;43.63;24.73;;;;;;;-145.45;100.00;62759.84;5263925;28;20037;-81
2022/03/06 04:45:50;;;;;;;41.88;24.63;;;;;;;-145.45;100.00;62759.84;5264318;28;20040;-80
2022/03/06 04:48:21;;;;;;;46.42;24.92;;;;;;;-145.45;100.00;62759.84;5282993;28;20020;-80
2022/03/06 04:50:52;;;;;;;40.42;23.70;;;;;;;-145.45;100.00;62759.84;5264246;28;20123;-80
2022/03/06 04:53:24;;;;;;;42.88;22.63;;;;;;;-145.45;100.00;62759.84;5282271;28;20020;-80
2022/03/06 04:55:55;;;;;;;39.83;23.17;;;;;;;-145.45;100.00;62759.84;5281734;28;20013;-80
2022/03/06 04:58:26;;;;;;;38.28;23.50;;;;;;;-145.45;100.00;62759.84;5282301;28;20108;-80
2022/03/06 05:00:58;;;;;;;41.08;23.15;;;;;;;-145.45;100.00;62759.84;5262589;28;25153;-80
2022/03/06 05:03:29;;;;;;;43.78;23.60;;;;;;;-145.45;100.00;62759.84;5285594;28;20056;-79
2022/03/06 05:06:01;;;;;;;41.55;24.08;;;;;;;-145.45;100.00;62759.84;5286628;28;20441;-81
2022/03/06 05:08:32;;;;;;;42.50;23.70;;;;;;;-145.45;100.00;62759.84;5263489;28;20111;-81
2022/03/06 05:11:03;;;;;;;42.85;24.15;;;;;;;-145.45;100.00;62759.84;5281418;28;20418;-80
2022/03/06 05:13:35;;;;;;;43.28;24.80;;;;;;;-145.45;100.00;62759.84;5281487;28;20390;-81
2022/03/06 05:16:06;;;;;;;39.58;24.17;;;;;;;-145.45;100.00;62759.84;5263841;28;20470;-81
2022/03/06 05:18:37;;;;;;;39.85;22.00;;;;;;;-145.45;100.00;62759.84;5281481;28;20100;-81
2022/03/06 05:21:08;;;;;;;35.22;20.02;;;;;;;-145.45;100.00;62759.84;5281818;28;20029;-81
2022/03/06 05:23:40;;;;;;;42.17;22.75;;;;;;;-145.45;100.00;62759.84;5280902;28;20025;-81
2022/03/06 05:26:11;;;;;;;41.58;22.58;;;;;;;-145.45;100.00;62759.84;5280898;28;20048;-81
2022/03/06 05:28:43;;;;;;;44.05;24.17;;;;;;;-145.45;100.00;62759.84;5279547;28;20025;-81
2022/03/06 05:31:14;;;;;;;40.42;22.60;;;;;;;-145.45;100.00;62759.84;5279103;28;20017;-81
2022/03/06 05:33:46;;;;;;;44.85;25.10;;;;;;;-145.45;100.00;62759.84;5281865;28;20032;-81
2022/03/06 05:36:18;;;;;;;50.03;26.13;;;;;;;-145.45;100.00;62759.84;5281631;28;20111;-81
2022/03/06 05:38:49;;;;;;;39.97;22.75;;;;;;;-145.45;100.00;62759.84;5281252;28;20013;-81
2022/03/06 05:41:20;;;;;;;48.30;27.73;;;;;;;-145.45;100.00;62759.84;5280711;28;20118;-81
2022/03/06 05:43:52;;;;;;;39.25;22.17;;;;;;;-145.45;100.00;62759.84;5280140;28;20163;-81
2022/03/06 05:46:23;;;;;;;43.78;25.50;;;;;;;-145.45;100.00;62759.84;5280940;28;20025;-81
2022/03/06 05:48:54;;;;;;;46.40;27.45;;;;;;;-145.45;100.00;62759.84;5280657;28;20020;-81
2022/03/06 05:51:26;;;;;;;43.42;25.08;;;;;;;-145.45;100.00;62759.84;5276725;28;20037;-78
2022/03/06 05:53:58;;;;;;;41.40;24.70;;;;;;;-145.45;100.00;62759.84;5280544;28;20052;-81
2022/03/06 05:56:30;;;;;;;46.33;25.42;;;;;;;-145.45;100.00;62759.84;5280383;28;20027;-81
2022/03/06 05:59:03;;;;;;;42.53;24.58;;;;;;;-145.45;100.00;62759.84;5280652;28;20032;-81
2022/03/06 06:01:34;;;;;;;42.17;25.92;;;;;;;-145.45;100.00;62759.84;5261406;28;20107;-81
2022/03/06 06:04:05;;;;;;;43.53;24.73;;;;;;;-145.45;100.00;62759.84;5280581;28;20473;-81
2022/03/06 06:06:36;;;;;;;40.75;24.83;;;;;;;-145.45;100.00;62759.84;5280000;28;20040;-81
2022/03/06 06:09:08;;;;;;;43.75;25.75;;;;;;;-145.45;100.00;62759.84;5280378;28;20021;-81
2022/03/06 06:11:39;;;;;;;40.72;25.27;;;;;;;-145.45;100.00;62759.84;5263509;28;20025;-81
2022/03/06 06:14:10;;;;;;;48.88;27.88;;;;;;;-145.45;100.00;62759.84;5282535;28;20053;-82
2022/03/06 06:16:42;;;;;;;40.05;24.52;;;;;;;-145.45;100.00;62759.84;5283358;28;20040;-81
2022/03/06 06:19:13;;;;;;;40.08;24.73;;;;;;;-145.45;100.00;62759.84;5269018;28;20097;-81
2022/03/06 06:21:44;;;;;;;39.40;24.17;;;;;;;-145.45;100.00;62759.84;5290803;28;20025;-82
2022/03/06 06:24:16;;;;;;;39.45;24.48;;;;;;;-145.45;100.00;62759.84;5293439;28;20040;-81
2022/03/06 06:26:48;;;;;;;37.08;22.70;;;;;;;-145.45;100.00;62759.84;5281616;28;20120;-81
2022/03/06 06:29:20;;;;;;;41.08;24.17;;;;;;;-145.45;100.00;62759.84;5285834;28;20020;-81
2022/03/06 06:31:52;;;;;;;41.95;23.80;;;;;;;-145.45;100.00;62759.84;5284195;28;20079;-80
2022/03/06 06:34:23;;;;;;;41.08;25.33;;;;;;;-145.45;100.00;62759.84;5280937;28;20017;-79
2022/03/06 06:36:57;;;;;;;39.50;25.23;;;;;;;-145.45;100.00;62759.84;5280996;28;20029;-80
2022/03/06 06:39:29;;;;;;;38.53;23.85;;;;;;;-145.45;100.00;62759.84;5263865;28;20438;-81
2022/03/06 06:42:01;;;;;;;43.33;25.73;;;;;;;-145.45;100.00;62759.84;5280451;28;20116;-81
2022/03/06 06:44:33;;;;;;;39.95;24.90;;;;;;;-145.45;100.00;62759.84;5290105;28;20072;-80
2022/03/06 06:47:04;;;;;;;43.25;24.60;;;;;;;-145.45;100.00;62759.84;5282580;28;20135;-81
2022/03/06 06:49:36;;;;;;;38.80;24.38;;;;;;;-145.45;100.00;62759.84;5264823;28;20131;-81
2022/03/06 06:52:07;;;;;;;38.95;23.95;;;;;;;-145.45;100.00;62759.84;5281695;28;20029;-80
2022/03/06 06:54:38;;;;;;;36.10;22.58;;;;;;;-145.45;100.00;62759.84;5280840;28;20031;-80
2022/03/06 06:57:10;;;;;;;37.38;23.40;;;;;;;-145.45;100.00;62759.84;5279816;28;20501;-80
2022/03/06 06:59:41;;;;;;;35.80;24.15;;;;;;;-145.45;100.00;62759.84;5279755;28;20786;-80
2022/03/06 07:02:12;;;;;;;37.00;22.88;;;;;;;-145.45;100.00;62759.84;5279801;28;20032;-80
2022/03/06 07:04:44;;;;;;;39.03;23.67;;;;;;;-145.45;100.00;62759.84;5280434;28;20168;-80
2022/03/06 07:07:15;;;;;;;38.35;23.02;;;;;;;-145.45;100.00;62759.84;5280539;28;20033;-80
2022/03/06 07:09:47;;;;;;;38.78;25.17;;;;;;;-145.45;100.00;62759.84;5280554;28;20029;-80
2022/03/06 07:12:18;;;;;;;38.28;24.80;;;;;;;-145.45;100.00;62759.84;5281509;28;20064;-81
2022/03/06 07:14:49;;;;;;;40.22;24.60;;;;;;;-145.45;100.00;62759.84;5281655;28;20474;-81
2022/03/06 07:17:20;;;;;;;40.50;23.95;;;;;;;-145.45;100.00;62759.84;5280058;28;20040;-81
2022/03/06 07:19:52;;;;;;;39.45;25.63;;;;;;;-145.45;100.00;62759.84;5281136;28;20029;-81
2022/03/06 07:22:23;;;;;;;38.67;25.45;;;;;;;-145.45;100.00;62759.84;5283037;28;20029;-81
2022/03/06 07:24:54;;;;;;;36.42;23.63;;;;;;;-145.45;100.00;62759.84;5281365;28;20033;-81
2022/03/06 07:27:26;;;;;;;32.33;21.70;;;;;;;-145.45;100.00;62759.84;5267310;28;20025;-81
2022/03/06 07:29:58;;;;;;;29.10;20.10;;;;;;;-145.45;100.00;62759.84;5285889;28;20431;-81
2022/03/06 07:32:29;;;;;;;27.42;19.30;;;;;;;-145.45;100.00;62759.84;5284510;28;20029;-81
2022/03/06 07:35:01;;;;;;;27.15;19.77;;;;;;;-145.45;100.00;62759.84;5284299;28;20029;-81
2022/03/06 07:37:32;;;;;;;23.75;18.08;;;;;;;-145.45;100.00;62759.84;5282600;28;20105;-81
2022/03/06 07:40:04;;;;;;;22.42;16.83;;;;;;;-145.45;100.00;62759.84;5282822;28;20025;-81
2022/03/06 07:42:35;;;;;;;21.17;17.10;;;;;;;-145.45;100.00;62759.84;5284349;28;20772;-81
2022/03/06 07:45:08;;;;;;;23.33;16.50;;;;;;;-145.45;100.00;62759.84;5282549;28;20499;-80
2022/03/06 07:47:40;;;;;;;20.58;17.13;;;;;;;-145.45;100.00;62759.84;5264491;28;20389;-80
2022/03/06 07:50:14;;;;;;;19.73;16.38;;;;;;;-145.45;100.00;62759.84;5264962;28;20041;-81
2022/03/06 07:52:45;;;;;;;20.13;15.73;;;;;;;-145.45;100.00;62759.84;5283394;28;20106;-81
2022/03/06 07:55:17;;;;;;;23.90;16.20;;;;;;;-145.45;100.00;62759.84;5279166;28;20041;-81
2022/03/06 07:57:48;;;;;;;19.23;14.75;;;;;;;-145.45;100.00;62759.84;5282593;28;20432;-81
2022/03/06 08:00:19;;;;;;;21.15;14.07;;;;;;;-145.45;100.00;62759.84;5283280;28;20021;-81
2022/03/06 08:02:51;;;;;;;16.65;13.95;;;;;;;-145.45;100.00;62759.84;5267703;28;20029;-81
2022/03/06 08:05:23;;;;;;;17.35;14.80;;;;;;;-145.45;100.00;62759.84;5283156;28;20533;-81
2022/03/06 08:07:54;;;;;;;16.95;14.30;;;;;;;-145.45;100.00;62759.84;5284294;28;20032;-81
2022/03/06 08:10:25;;;;;;;16.30;13.85;;;;;;;-145.45;100.00;62759.84;5285111;28;20126;-82
2022/03/06 08:12:56;;;;;;;17.00;13.13;;;;;;;-145.45;100.00;62759.84;5266212;28;20107;-82
2022/03/06 08:15:28;;;;;;;15.98;13.80;;;;;;;-145.45;100.00;62759.84;5286287;28;20032;-81
2022/03/06 08:17:59;;;;;;;15.45;13.85;;;;;;;-145.45;100.00;62759.84;5273595;28;20033;-81
2022/03/06 08:20:31;;;;;;;18.10;14.18;;;;;;;-145.45;100.00;62759.84;5286208;28;20103;-82
2022/03/06 08:23:02;;;;;;;15.63;13.18;;;;;;;-145.45;100.00;62759.84;5282178;28;20033;-81
2022/03/06 08:25:33;;;;;;;18.38;13.73;;;;;;;-145.45;100.00;62759.84;5264460;28;20128;-81
2022/03/06 08:28:05;;;;;;;15.35;13.30;;;;;;;-145.45;100.00;62759.84;5284604;28;20025;-81
2022/03/06 08:30:36;;;;;;;15.38;13.52;;;;;;;-145.45;100.00;62759.84;5284331;28;20017;-80
2022/03/06 08:33:07;;;;;;;14.30;12.25;;;;;;;-145.45;100.00;62759.84;5283388;28;20032;-79
2022/03/06 08:35:39;;;;;;;15.05;12.07;;;;;;;-145.45;100.00;62759.84;5288743;28;20385;-79
2022/03/06 08:38:10;;;;;;;14.18;12.65;;;;;;;-145.45;100.00;62759.84;5291878;28;20055;-80
2022/03/06 08:40:41;;;;;;;13.60;12.13;;;;;;;-145.45;100.00;62759.84;5286315;28;20108;-80
2022/03/06 08:43:12;;;;;;;15.15;13.55;;;;;;;-145.45;100.00;62759.84;5279830;28;34805;-80
2022/03/06 08:45:44;;;;;;;16.13;12.75;;;;;;;-145.45;100.00;62759.84;5285693;28;20108;-81
2022/03/06 08:48:15;;;;;;;15.25;12.75;;;;;;;-145.45;100.00;62759.84;5300525;28;20040;-80
2022/03/06 08:50:50;;;;;;;14.70;13.18;;;;;;;-145.45;100.00;62759.84;5276422;28;20060;-80
2022/03/06 08:53:21;;;;;;;14.13;12.57;;;;;;;-145.45;100.00;62759.84;5283426;28;20029;-81
2022/03/06 08:55:52;;;;;;;13.63;12.18;;;;;;;-145.45;100.00;62759.84;5282232;28;20087;-81
2022/03/06 08:58:24;;;;;;;13.85;12.45;;;;;;;-145.45;100.00;62759.84;5272369;28;20108;-81
2022/03/06 09:00:55;;;;;;;14.65;12.95;;;;;;;-145.45;100.00;62759.84;5277367;28;20120;-81
2022/03/06 09:03:26;;;;;;;14.90;12.80;;;;;;;-145.45;100.00;62759.84;5280439;28;20334;-81
2022/03/06 09:05:58;;;;;;;14.90;12.43;;;;;;;-145.45;100.00;62759.84;5283113;28;20057;-81
2022/03/06 09:08:29;;;;;;;12.65;11.30;;;;;;;-145.45;100.00;62759.84;5273656;28;20021;-81
2022/03/06 09:11:00;;;;;;;13.02;11.65;;;;;;;-145.45;100.00;62759.84;5282004;28;20365;-81
2022/03/06 09:13:33;;;;;;;13.32;12.02;;;;;;;-145.45;100.00;62759.84;5282407;28;32568;-81
2022/03/06 09:16:04;;;;;;;13.25;11.82;;;;;;;-145.45;100.00;62759.84;5263507;28;20032;-81
2022/03/06 09:18:36;;;;;;;12.55;11.35;;;;;;;-145.45;100.00;62759.84;5282459;28;20029;-81
2022/03/06 09:21:07;;;;;;;12.95;11.65;;;;;;;-145.45;100.00;62759.84;5261619;28;20119;-82
2022/03/06 09:23:38;;;;;;;14.13;12.65;;;;;;;-145.45;100.00;62759.84;5263037;28;20029;-82
2022/03/06 09:26:10;;;;;;;11.02;9.65;;;;;;;-145.45;100.00;62759.84;5281402;28;20064;-82
2022/03/06 09:28:41;;;;;;;13.50;12.10;;;;;;;-145.45;100.00;62759.84;5280721;28;20090;-82
2022/03/06 09:31:13;;;;;;;13.48;12.13;;;;;;;-145.45;100.00;62759.84;5281357;28;20083;-82
2022/03/06 09:33:44;;;;;;;12.88;11.57;;;;;;;-145.45;100.00;62759.84;5281348;28;20052;-82
2022/03/06 09:36:15;;;;;;;12.57;11.27;;;;;;;-145.45;100.00;62759.84;5281470;28;20114;-82
2022/03/06 09:38:46;;;;;;;12.52;11.10;;;;;;;-145.45;100.00;62759.84;5277475;28;20496;-82
2022/03/06 09:41:23;;;;;;;14.27;10.93;;;;;;;-145.45;100.00;62759.84;5280542;28;20090;-81
2022/03/06 09:43:56;;;;;;;11.90;10.75;;;;;;;-145.45;100.00;62759.84;5261941;28;20029;-81
2022/03/06 09:46:27;;;;;;;11.40;10.30;;;;;;;-145.45;100.00;62759.84;5280453;28;20025;-82
2022/03/06 09:52:35;;;;;;;11.85;10.75;;;;;;;20.05;27.19;102577.69;5386996;27;22423;-82
2022/03/06 09:55:07;;;;;;;12.00;10.80;;;;;;;19.79;27.54;102575.88;5363449;27;20496;-83
2022/03/06 09:57:38;;;;;;;11.30;10.25;;;;;;;19.39;27.59;102577.31;5357390;27;21638;-82
2022/03/06 10:00:10;;;;;;;10.68;9.57;;;;;;;19.30;27.61;102580.94;5359845;27;20083;-82
2022/03/06 10:02:59;;;;;;;11.82;10.63;;;;;;;20.12;28.96;102576.00;5363369;27;20038;-82
2022/03/06 10:05:37;;;;;;;12.15;10.85;;;;;;;20.45;28.57;102572.56;5361545;27;20020;-82
2022/03/06 10:08:21;;;;;;;11.63;10.48;;;;;;;19.95;28.61;102574.25;5348403;27;20023;-82
2022/03/06 10:11:02;;;;;;;11.65;10.45;;;;;;;20.31;28.28;102568.63;5362504;27;20139;-82
2022/03/06 10:13:36;;;;;;;11.40;10.20;;;;;;;21.13;26.37;102580.44;5361716;27;20028;-82
2022/03/06 10:16:16;;;;;;;11.63;10.52;;;;;;;21.23;26.07;102574.84;5357753;27;20209;-82
2022/03/06 10:18:50;;;;;;;11.40;10.40;;;;;;;20.21;26.14;102582.31;5354818;27;20028;-81
2022/03/06 10:21:26;;;;;;;11.27;9.93;;;;;;;20.54;26.63;102577.81;5363500;27;20055;-80
2022/03/06 10:24:08;;;;;;;10.13;9.13;;;;;;;20.96;26.86;102579.59;5363283;27;20023;-82
2022/03/06 10:26:39;;;;;;;12.98;10.35;;;;;;;21.58;24.95;102585.50;5361790;27;20030;-81
2022/03/06 10:29:11;;;;;;;10.75;9.57;;;;;;;21.47;24.60;102589.41;5363492;27;20031;-81
2022/03/06 10:31:58;;;;;;;10.95;9.73;;;;;;;22.29;24.82;102586.44;5345129;27;20024;-81
2022/03/06 10:34:37;;;;;;;12.63;9.70;;;;;;;22.07;25.39;102574.44;5363242;27;20040;-81
2022/03/06 10:37:12;;;;;;;10.38;9.38;;;;;;;21.46;25.10;102582.31;5362678;27;20023;-81
2022/03/06 10:39:48;;;;;;;10.52;9.38;;;;;;;20.64;26.09;102585.84;5362375;27;20420;-82
2022/03/06 10:42:22;;;;;;;10.30;9.30;;;;;;;21.19;26.17;102584.34;5361066;27;20031;-81
2022/03/06 10:44:53;;;;;;;10.13;9.13;;;;;;;20.47;26.74;102586.78;5358254;27;20024;-82
2022/03/06 10:47:25;;;;;;;10.30;8.90;;;;;;;21.44;25.65;102581.59;5357664;27;20027;-81
2022/03/06 10:50:01;;;;;;;11.43;8.88;;;;;;;21.12;25.65;102580.59;5352144;27;20028;-82
2022/03/06 10:52:41;;;;;;;9.85;8.85;;;;;;;22.10;25.02;102584.97;5340756;27;20036;-82
2022/03/06 10:55:12;;;;;;;8.88;7.97;;;;;;;21.33;24.67;102574.66;5324448;27;20024;-82
2022/03/06 10:57:55;;;;;;;9.05;7.80;;;;;;;22.80;23.79;102583.22;5342560;27;20015;-82
2022/03/06 11:00:27;;;;;;;9.68;8.35;;;;;;;22.61;23.66;102579.94;5341216;27;20031;-82
2022/03/06 11:03:03;;;;;;;9.63;8.63;;;;;;;23.03;23.40;102586.78;5339884;27;20023;-82
2022/03/06 11:05:35;;;;;;;9.48;8.35;;;;;;;23.46;21.65;102586.25;5325733;28;20035;-82
2022/03/06 11:08:08;;;;;;;9.07;8.18;;;;;;;23.12;22.38;102592.19;5326709;28;20057;-82
2022/03/06 11:10:42;;;;;;;9.13;7.82;;;;;;;24.33;22.44;102563.75;5325556;28;20115;-82
2022/03/06 11:13:14;;;;;;;9.05;7.70;;;;;;;24.01;21.63;102577.81;5325878;28;20031;-82
2022/03/06 11:15:45;;;;;;;8.88;7.97;;;;;;;23.22;20.67;102569.13;5307504;28;20032;-83
2022/03/06 11:18:16;;;;;;;8.68;7.57;;;;;;;23.68;21.88;102581.75;5326637;27;20119;-82
2022/03/06 11:20:48;;;;;;;8.77;7.93;;;;;;;23.77;21.34;102571.59;5327354;27;20023;-83